Time;durP1;ratioP1;P1;durP2;ratioP2;P2;SDS_P1;SDS_P2;PMS_P1;PMS_P2;Temp;Humidity;BMP_temperature;BMP_pressure;BME280_temperature;BME280_humidity;BME280_pressure;Samples;Min_cycle;Max_cycle;Signal;HPM_P1;HPM_P2
2021/06/28 00:00:00;;;;;;;9.13;6.82;;;20.10;99.90;;;;;;5044374;28;20025;-75
2021/06/28 00:02:29;;;;;;;10.23;7.00;;;20.00;99.90;;;;;;5052759;28;20125;-74
2021/06/28 00:04:55;;;;;;;7.47;6.78;;;19.90;99.90;;;;;;5051913;28;20079;-74
2021/06/28 00:07:21;;;;;;;7.82;7.05;;;19.90;99.90;;;;;;5056961;28;20053;-75
2021/06/28 00:09:46;;;;;;;7.05;6.35;;;20.00;99.90;;;;;;5044504;28;20486;-74
2021/06/28 00:12:12;;;;;;;7.32;6.63;;;20.00;99.90;;;;;;5063468;28;20036;-75
2021/06/28 00:14:37;;;;;;;7.03;6.43;;;19.90;99.90;;;;;;5058433;28;20410;-74
2021/06/28 00:17:03;;;;;;;9.60;7.47;;;19.90;99.90;;;;;;5056082;28;20024;-74
2021/06/28 00:19:29;;;;;;;7.45;6.55;;;20.00;99.90;;;;;;5058822;28;20047;-74
2021/06/28 00:21:54;;;;;;;8.00;7.30;;;20.20;99.90;;;;;;5046899;28;20017;-74
2021/06/28 00:24:20;;;;;;;7.38;6.78;;;20.40;99.90;;;;;;5062672;28;20029;-74
2021/06/28 00:26:45;;;;;;;7.43;6.82;;;20.50;99.90;;;;;;5061982;28;20112;-74
2021/06/28 00:29:11;;;;;;;7.47;6.72;;;20.50;99.90;;;;;;5053978;28;20092;-74
2021/06/28 00:31:38;;;;;;;6.97;6.30;;;20.40;99.90;;;;;;5045622;28;20028;-74
2021/06/28 00:34:04;;;;;;;7.38;6.68;;;20.60;99.90;;;;;;5053765;28;20017;-75
2021/06/28 00:36:29;;;;;;;8.10;7.22;;;20.70;99.90;;;;;;5048868;28;20028;-74
2021/06/28 00:38:55;;;;;;;9.00;7.03;;;20.70;99.90;;;;;;5042403;28;20033;-74
2021/06/28 00:41:21;;;;;;;7.93;7.15;;;20.60;99.90;;;;;;5052093;28;20040;-74
2021/06/28 00:43:46;;;;;;;10.38;7.55;;;20.40;99.90;;;;;;5035244;28;20037;-74
2021/06/28 00:46:12;;;;;;;7.32;6.63;;;20.40;99.90;;;;;;5047013;28;20025;-74
2021/06/28 00:48:37;;;;;;;8.13;7.20;;;20.40;99.90;;;;;;5043769;28;20017;-74
2021/06/28 00:51:03;;;;;;;8.57;7.68;;;20.40;99.90;;;;;;5040217;28;20075;-74
2021/06/28 00:53:29;;;;;;;7.40;6.65;;;20.30;99.90;;;;;;5046062;28;20021;-75
2021/06/28 00:56:08;;;;;;;7.88;7.18;;;20.10;99.90;;;;;;5047404;28;20123;-74
2021/06/28 00:58:38;;;;;;;7.53;6.82;;;20.20;99.90;;;;;;5045573;28;20021;-75
2021/06/28 01:01:05;;;;;;;7.80;7.05;;;20.20;99.90;;;;;;5039756;28;20411;-73
2021/06/28 01:03:30;;;;;;;11.18;7.15;;;20.20;99.90;;;;;;5043976;28;20032;-74
2021/06/28 01:05:56;;;;;;;8.90;8.00;;;20.20;99.90;;;;;;5047830;28;20390;-72
2021/06/28 01:08:21;;;;;;;8.20;7.43;;;20.10;99.90;;;;;;5045488;28;20029;-72
2021/06/28 01:10:47;;;;;;;7.45;6.85;;;20.00;99.90;;;;;;5041285;28;20414;-71
2021/06/28 01:13:13;;;;;;;8.98;6.93;;;20.00;99.90;;;;;;5043311;28;20079;-72
2021/06/28 01:15:39;;;;;;;8.02;7.20;;;20.00;99.90;;;;;;5047939;28;20376;-72
2021/06/28 01:18:05;;;;;;;7.55;6.75;;;20.10;99.90;;;;;;5045428;28;20032;-72
2021/06/28 01:20:31;;;;;;;8.73;7.13;;;20.10;99.90;;;;;;5049856;28;20025;-73
2021/06/28 01:23:24;;;;;;;9.52;6.90;;;20.20;99.90;;;;;;5034836;28;20035;-73
2021/06/28 01:25:56;;;;;;;8.10;7.40;;;20.10;99.90;;;;;;5032809;28;20546;-73
2021/06/28 01:28:22;;;;;;;8.25;7.45;;;20.00;99.90;;;;;;5036351;28;20033;-73
2021/06/28 01:30:48;;;;;;;7.80;7.10;;;20.10;99.90;;;;;;5053966;28;20048;-73
2021/06/28 01:33:14;;;;;;;9.88;7.43;;;20.10;99.90;;;;;;5038695;28;20025;-73
2021/06/28 01:35:40;;;;;;;7.68;6.90;;;19.90;99.90;;;;;;5033972;28;20068;-74
2021/06/28 01:38:06;;;;;;;8.00;7.32;;;19.90;99.90;;;;;;5049502;28;20487;-74
2021/06/28 01:40:32;;;;;;;7.80;7.10;;;19.90;99.90;;;;;;5052283;28;20078;-74
2021/06/28 01:42:58;;;;;;;9.35;7.32;;;19.90;99.90;;;;;;5051286;28;20486;-74
2021/06/28 01:45:24;;;;;;;8.32;7.55;;;19.90;99.90;;;;;;5033935;28;20033;-73
2021/06/28 01:47:51;;;;;;;8.02;7.22;;;19.90;99.90;;;;;;5032628;28;20124;-73
2021/06/28 01:50:18;;;;;;;9.77;8.00;;;19.90;99.90;;;;;;5043834;28;20024;-73
2021/06/28 01:52:45;;;;;;;8.27;7.25;;;19.70;99.90;;;;;;5038849;28;20113;-73
2021/06/28 01:55:13;;;;;;;8.27;7.30;;;19.80;99.90;;;;;;5033814;28;20033;-74
2021/06/28 01:57:47;;;;;;;10.65;7.63;;;19.70;99.90;;;;;;5033706;28;20491;-73
2021/06/28 02:00:16;;;;;;;8.25;7.05;;;19.80;99.90;;;;;;5033930;28;20448;-73
2021/06/28 02:03:07;;;;;;;8.45;7.75;;;19.90;99.90;;;;;;5033644;28;20026;-75
2021/06/28 02:05:42;;;;;;;8.20;7.50;;;19.90;99.90;;;;;;5033412;28;20523;-74
2021/06/28 02:08:09;;;;;;;9.27;8.32;;;19.80;99.90;;;;;;5033601;28;20040;-75
2021/06/28 02:10:37;;;;;;;8.75;7.88;;;19.60;99.90;;;;;;5046551;28;20028;-74
2021/06/28 02:13:04;;;;;;;8.30;7.55;;;19.50;99.90;;;;;;5042302;28;20036;-75
2021/06/28 02:15:30;;;;;;;8.82;7.93;;;19.40;99.90;;;;;;5038401;28;20476;-75
2021/06/28 02:17:57;;;;;;;9.18;8.38;;;19.30;99.90;;;;;;5043477;28;20475;-75
2021/06/28 02:20:23;;;;;;;8.30;7.60;;;19.30;99.90;;;;;;5046692;28;20406;-76
2021/06/28 02:22:50;;;;;;;8.60;7.78;;;19.30;99.90;;;;;;5042053;28;20112;-76
2021/06/28 02:25:17;;;;;;;8.85;8.05;;;19.50;99.90;;;;;;5039670;28;20021;-75
2021/06/28 02:27:42;;;;;;;8.50;7.70;;;19.50;99.90;;;;;;5044070;28;20055;-76
2021/06/28 02:30:14;;;;;;;9.02;8.13;;;19.30;99.90;;;;;;5048784;28;20028;-74
2021/06/28 02:32:41;;;;;;;9.13;8.23;;;19.30;99.90;;;;;;5042950;28;20025;-74
2021/06/28 02:35:08;;;;;;;8.27;7.47;;;19.00;99.90;;;;;;5045128;28;20029;-74
2021/06/28 02:37:35;;;;;;;9.35;8.23;;;19.10;99.90;;;;;;5041880;28;20106;-74
2021/06/28 02:40:01;;;;;;;9.18;8.27;;;19.10;99.90;;;;;;5034228;28;20025;-74
2021/06/28 02:42:27;;;;;;;9.25;8.35;;;19.10;99.90;;;;;;5031621;28;20032;-74
2021/06/28 02:44:52;;;;;;;8.60;7.80;;;19.20;99.90;;;;;;5046089;28;20484;-74
2021/06/28 02:47:18;;;;;;;9.50;8.57;;;19.10;99.90;;;;;;5032652;28;20048;-73
2021/06/28 02:49:44;;;;;;;9.60;8.77;;;19.10;99.90;;;;;;5046002;28;20022;-74
2021/06/28 02:52:09;;;;;;;10.10;9.20;;;18.80;99.90;;;;;;5043469;28;20031;-75
2021/06/28 02:54:35;;;;;;;10.73;9.70;;;18.80;99.90;;;;;;5034531;28;20033;-75
2021/06/28 02:57:00;;;;;;;9.50;8.50;;;18.90;99.90;;;;;;5041958;28;20029;-75
2021/06/28 02:59:26;;;;;;;10.57;9.45;;;18.90;99.90;;;;;;5033659;28;20036;-73
2021/06/28 03:01:51;;;;;;;10.55;9.30;;;19.10;99.90;;;;;;5041760;28;20029;-74
2021/06/28 03:04:17;;;;;;;10.35;9.18;;;19.10;99.90;;;;;;5052317;28;20040;-73
2021/06/28 03:06:42;;;;;;;10.38;9.30;;;19.00;99.90;;;;;;5052133;28;20029;-74
2021/06/28 03:09:08;;;;;;;10.23;9.15;;;18.90;99.90;;;;;;5048587;28;20028;-73
2021/06/28 03:11:33;;;;;;;12.77;10.43;;;18.90;99.90;;;;;;5042548;28;20025;-73
2021/06/28 03:13:59;;;;;;;10.65;9.65;;;18.40;99.90;;;;;;5038880;28;20025;-73
2021/06/28 03:16:25;;;;;;;11.55;10.48;;;18.20;99.90;;;;;;5052141;28;20426;-74
2021/06/28 03:18:51;;;;;;;11.25;10.13;;;18.40;99.90;;;;;;5052258;28;20051;-73
2021/06/28 03:21:17;;;;;;;9.93;9.02;;;18.40;99.90;;;;;;5051902;28;20043;-74
2021/06/28 03:23:45;;;;;;;11.43;10.27;;;18.50;99.90;;;;;;5035354;28;20029;-74
2021/06/28 03:26:11;;;;;;;10.80;9.70;;;18.60;99.90;;;;;;5032055;28;20108;-72
2021/06/28 03:28:37;;;;;;;11.43;10.25;;;18.50;99.90;;;;;;5031979;28;20025;-75
2021/06/28 03:31:05;;;;;;;12.60;10.25;;;18.50;99.90;;;;;;5042367;28;20123;-75
2021/06/28 03:33:31;;;;;;;14.10;10.18;;;18.50;99.90;;;;;;5037439;28;20557;-74
2021/06/28 03:35:57;;;;;;;11.23;10.05;;;18.50;99.90;;;;;;5050485;28;20036;-74
2021/06/28 03:38:22;;;;;;;10.57;9.52;;;18.60;99.90;;;;;;5046871;28;20018;-75
2021/06/28 03:40:48;;;;;;;11.88;10.63;;;18.50;99.90;;;;;;5042399;28;20082;-73
2021/06/28 03:43:13;;;;;;;11.57;10.40;;;18.50;99.90;;;;;;5050564;28;20399;-74
2021/06/28 03:45:40;;;;;;;11.45;10.30;;;18.40;99.90;;;;;;5051750;28;20479;-75
2021/06/28 03:48:08;;;;;;;11.20;10.10;;;18.40;99.90;;;;;;5032734;28;20022;-74
2021/06/28 03:50:34;;;;;;;12.60;11.25;;;18.40;99.90;;;;;;5041844;28;20115;-74
2021/06/28 03:52:59;;;;;;;11.85;10.70;;;17.90;99.90;;;;;;5051688;28;20104;-74
2021/06/28 03:55:26;;;;;;;10.95;9.95;;;17.20;99.90;;;;;;5040174;28;20134;-73
2021/06/28 03:57:51;;;;;;;13.00;11.70;;;17.50;99.90;;;;;;5030434;28;20399;-73
2021/06/28 04:00:20;;;;;;;12.88;10.90;;;18.00;99.90;;;;;;5031537;28;20025;-73
2021/06/28 04:02:46;;;;;;;12.52;11.23;;;18.30;99.90;;;;;;5050360;28;20059;-73
2021/06/28 04:05:21;;;;;;;13.32;11.82;;;18.50;99.90;;;;;;5051280;28;20025;-74
2021/06/28 04:07:46;;;;;;;12.95;11.65;;;18.90;99.90;;;;;;5051489;28;20033;-74
2021/06/28 04:10:13;;;;;;;12.82;11.52;;;19.00;99.90;;;;;;5050131;28;20386;-73
2021/06/28 04:12:39;;;;;;;13.00;11.70;;;19.10;99.90;;;;;;5051447;28;20474;-73
2021/06/28 04:15:11;;;;;;;13.75;12.25;;;19.40;99.90;;;;;;5051369;28;20055;-73
2021/06/28 04:17:41;;;;;;;11.95;10.75;;;19.40;99.90;;;;;;5051431;28;20033;-74
2021/06/28 04:20:09;;;;;;;12.15;10.95;;;19.40;99.90;;;;;;5036624;28;20454;-75
2021/06/28 04:22:36;;;;;;;11.73;10.60;;;19.40;99.90;;;;;;5042047;28;20440;-75
2021/06/28 04:25:04;;;;;;;12.88;11.50;;;19.50;99.90;;;;;;5044487;28;20367;-73
2021/06/28 04:27:30;;;;;;;14.70;12.07;;;19.40;99.90;;;;;;5038950;28;20295;-74
2021/06/28 04:29:55;;;;;;;12.23;11.13;;;19.40;99.90;;;;;;5049812;28;20107;-73
2021/06/28 04:32:21;;;;;;;12.25;10.88;;;19.40;99.90;;;;;;5050108;28;20021;-74
2021/06/28 04:34:46;;;;;;;12.75;11.38;;;19.40;99.90;;;;;;5036075;28;20037;-73
2021/06/28 04:37:13;;;;;;;12.32;11.20;;;19.50;99.90;;;;;;5039859;28;20061;-73
2021/06/28 04:39:40;;;;;;;12.27;10.70;;;19.50;99.90;;;;;;5036128;28;20040;-74
2021/06/28 04:42:07;;;;;;;13.18;11.85;;;19.60;99.90;;;;;;5038504;28;20032;-74
2021/06/28 04:44:33;;;;;;;12.25;11.07;;;19.70;99.90;;;;;;5049302;28;20025;-73
2021/06/28 04:46:59;;;;;;;13.70;11.60;;;19.90;99.90;;;;;;5040038;28;20044;-74
2021/06/28 04:49:25;;;;;;;13.15;11.75;;;19.40;99.90;;;;;;5035847;28;20094;-73
2021/06/28 04:51:50;;;;;;;12.38;11.18;;;19.10;99.90;;;;;;5040634;28;20029;-72
2021/06/28 04:54:16;;;;;;;15.40;11.35;;;19.30;99.90;;;;;;5035253;28;20030;-73
2021/06/28 04:56:42;;;;;;;12.70;11.25;;;19.40;99.90;;;;;;5031237;28;20025;-73
2021/06/28 04:59:07;;;;;;;14.90;11.38;;;19.40;99.90;;;;;;5030892;28;20029;-73
2021/06/28 05:01:33;;;;;;;13.10;11.90;;;19.60;99.90;;;;;;5031205;28;20044;-73
2021/06/28 05:03:58;;;;;;;13.45;12.15;;;19.40;99.90;;;;;;5029762;28;20021;-73
2021/06/28 05:06:24;;;;;;;13.13;11.88;;;19.20;99.90;;;;;;5031076;28;20017;-73
2021/06/28 05:08:49;;;;;;;13.38;12.13;;;19.30;99.90;;;;;;5031077;28;20092;-73
2021/06/28 05:11:15;;;;;;;12.82;11.60;;;19.60;99.90;;;;;;5031093;28;20377;-72
2021/06/28 05:13:40;;;;;;;13.02;11.82;;;19.70;99.90;;;;;;5030938;28;20097;-73
2021/06/28 05:16:06;;;;;;;13.13;11.65;;;20.00;99.90;;;;;;5038749;28;20029;-73
2021/06/28 05:18:31;;;;;;;12.73;11.45;;;20.00;99.90;;;;;;5054383;28;20033;-73
2021/06/28 05:20:57;;;;;;;13.60;12.20;;;20.10;99.90;;;;;;5053019;28;20024;-73
2021/06/28 05:23:22;;;;;;;13.77;12.38;;;20.20;99.90;;;;;;5054334;28;20139;-73
2021/06/28 05:25:49;;;;;;;12.85;11.55;;;20.10;99.90;;;;;;5052914;28;20021;-73
2021/06/28 05:28:15;;;;;;;12.40;11.20;;;20.10;99.90;;;;;;5054324;28;20028;-73
2021/06/28 05:30:41;;;;;;;13.00;11.57;;;20.30;99.90;;;;;;5052758;28;20021;-73
2021/06/28 05:33:06;;;;;;;13.75;10.95;;;20.20;99.90;;;;;;5054126;28;20104;-73
2021/06/28 05:35:32;;;;;;;12.07;10.82;;;20.40;99.90;;;;;;5048096;28;20024;-74
2021/06/28 05:37:58;;;;;;;13.25;11.73;;;20.40;99.90;;;;;;5041843;28;20057;-74
2021/06/28 05:40:23;;;;;;;12.43;10.60;;;20.40;99.90;;;;;;5053875;28;20028;-73
2021/06/28 05:42:49;;;;;;;12.80;10.63;;;20.30;99.90;;;;;;5053992;28;20075;-73
2021/06/28 05:45:15;;;;;;;12.55;10.98;;;20.50;99.90;;;;;;5046157;28;20084;-73
2021/06/28 05:47:40;;;;;;;11.93;10.82;;;20.70;99.90;;;;;;5031972;28;20024;-73
2021/06/28 05:50:08;;;;;;;12.65;11.45;;;20.80;99.90;;;;;;5033726;28;20029;-73
2021/06/28 05:52:34;;;;;;;13.20;11.43;;;20.90;99.90;;;;;;5034430;28;20025;-73
2021/06/28 05:55:00;;;;;;;14.52;12.40;;;20.80;99.90;;;;;;5034050;28;20368;-73
2021/06/28 05:57:26;;;;;;;12.52;11.32;;;21.00;99.90;;;;;;5042653;28;20033;-73
2021/06/28 05:59:54;;;;;;;12.20;11.10;;;21.00;99.90;;;;;;5036209;28;20041;-73
2021/06/28 06:02:21;;;;;;;12.57;11.13;;;21.00;99.90;;;;;;5044366;28;20103;-76
2021/06/28 06:04:47;;;;;;;11.38;10.38;;;21.00;99.90;;;;;;5031637;28;20041;-74
2021/06/28 06:07:13;;;;;;;13.25;11.55;;;21.10;99.90;;;;;;5030263;28;20403;-74
2021/06/28 06:09:38;;;;;;;13.68;12.23;;;21.10;99.90;;;;;;5031496;28;20403;-74
2021/06/28 06:12:05;;;;;;;14.00;11.93;;;20.70;99.90;;;;;;5031243;28;20025;-74
2021/06/28 06:14:30;;;;;;;12.80;11.50;;;20.60;99.90;;;;;;5033211;28;20030;-74
2021/06/28 06:16:57;;;;;;;12.10;10.90;;;21.10;99.90;;;;;;5033397;28;20056;-75
2021/06/28 06:19:22;;;;;;;15.60;11.07;;;21.40;99.90;;;;;;5041015;28;20479;-73
2021/06/28 06:21:48;;;;;;;11.80;10.68;;;21.40;99.90;;;;;;5051996;28;20036;-73
2021/06/28 06:24:13;;;;;;;11.10;10.10;;;21.20;99.90;;;;;;5053194;28;20036;-73
2021/06/28 06:26:39;;;;;;;12.15;10.75;;;21.40;99.90;;;;;;5051809;28;20025;-73
2021/06/28 06:29:05;;;;;;;11.38;10.27;;;21.50;99.90;;;;;;5052798;28;20494;-73
2021/06/28 06:31:30;;;;;;;11.18;10.15;;;21.60;99.90;;;;;;5053040;28;20044;-73
2021/06/28 06:33:56;;;;;;;10.98;9.88;;;21.60;99.90;;;;;;5053076;28;20513;-73
2021/06/28 06:36:22;;;;;;;11.30;9.98;;;21.60;99.90;;;;;;5052837;28;20116;-73
2021/06/28 06:38:47;;;;;;;10.57;9.57;;;21.80;99.90;;;;;;5052763;28;20025;-73
2021/06/28 06:41:13;;;;;;;10.52;9.43;;;22.10;99.90;;;;;;5052592;28;20477;-73
2021/06/28 06:43:39;;;;;;;10.32;9.32;;;22.40;99.90;;;;;;5052738;28;20051;-73
2021/06/28 06:46:05;;;;;;;10.40;9.20;;;22.30;99.90;;;;;;5037015;28;20026;-73
2021/06/28 06:48:30;;;;;;;9.38;8.57;;;22.60;99.90;;;;;;5032896;28;20033;-73
2021/06/28 06:50:56;;;;;;;9.70;8.80;;;22.70;99.90;;;;;;5033137;28;20025;-73
2021/06/28 06:53:22;;;;;;;9.65;8.85;;;23.00;99.90;;;;;;5031457;28;20094;-73
2021/06/28 06:55:48;;;;;;;8.80;8.10;;;23.10;99.90;;;;;;5031099;28;20096;-73
2021/06/28 06:58:14;;;;;;;7.55;6.95;;;23.40;99.90;;;;;;5032730;28;20033;-73
2021/06/28 07:00:43;;;;;;;8.73;7.93;;;23.40;99.90;;;;;;5032230;28;20033;-73
2021/06/28 07:03:08;;;;;;;8.25;7.55;;;23.40;99.90;;;;;;5031149;28;20497;-73
2021/06/28 07:05:35;;;;;;;7.35;6.75;;;23.50;99.90;;;;;;5032418;28;20105;-73
2021/06/28 07:08:00;;;;;;;9.25;8.35;;;23.50;99.90;;;;;;5032278;28;20053;-73
2021/06/28 07:10:26;;;;;;;8.70;7.47;;;23.60;99.90;;;;;;5032056;28;20072;-73
2021/06/28 07:12:53;;;;;;;7.65;6.95;;;23.60;99.90;;;;;;5032428;28;20056;-73
2021/06/28 07:15:21;;;;;;;8.15;7.28;;;23.60;99.90;;;;;;5032231;28;20025;-73
2021/06/28 07:17:47;;;;;;;8.48;7.68;;;23.90;99.90;;;;;;5040200;28;20040;-73
2021/06/28 07:20:17;;;;;;;8.38;7.30;;;24.00;99.90;;;;;;5050778;28;20506;-73
2021/06/28 07:22:43;;;;;;;7.97;6.95;;;24.20;99.90;;;;;;5051026;28;20036;-73
2021/06/28 07:25:10;;;;;;;7.72;7.03;;;24.20;99.90;;;;;;5048287;28;20025;-74
2021/06/28 07:27:36;;;;;;;7.70;7.00;;;24.30;99.90;;;;;;5031976;28;20045;-73
2021/06/28 07:30:05;;;;;;;8.75;7.95;;;24.40;99.90;;;;;;5030470;28;20029;-73
2021/06/28 07:32:31;;;;;;;8.30;7.60;;;24.40;99.90;;;;;;5030827;28;20116;-74
2021/06/28 07:34:56;;;;;;;7.32;6.72;;;24.40;99.90;;;;;;5031837;28;20163;-76
2021/06/28 07:37:22;;;;;;;8.38;7.57;;;24.60;99.90;;;;;;5031747;28;20028;-76
2021/06/28 07:39:48;;;;;;;8.10;7.32;;;24.50;99.90;;;;;;5030998;28;20040;-76
2021/06/28 07:42:14;;;;;;;8.35;7.55;;;24.60;99.90;;;;;;5031992;28;20095;-76
2021/06/28 07:44:40;;;;;;;8.40;7.63;;;24.70;99.90;;;;;;5046664;28;20048;-76
2021/06/28 07:47:05;;;;;;;8.07;7.38;;;24.80;99.90;;;;;;5050583;28;20029;-74
2021/06/28 07:49:31;;;;;;;8.43;7.63;;;24.60;99.90;;;;;;5051569;28;20114;-74
2021/06/28 07:51:57;;;;;;;8.27;7.50;;;24.60;99.90;;;;;;5042291;28;20560;-74
2021/06/28 07:54:24;;;;;;;8.75;7.95;;;24.70;99.90;;;;;;5033098;28;20033;-74
2021/06/28 07:56:49;;;;;;;9.63;8.43;;;24.70;99.90;;;;;;5050356;28;20074;-74
2021/06/28 07:59:15;;;;;;;9.25;8.35;;;24.70;99.90;;;;;;5050125;28;20094;-74
2021/06/28 08:01:41;;;;;;;8.32;7.60;;;24.90;99.90;;;;;;5041030;28;20025;-74
2021/06/28 08:04:07;;;;;;;8.45;7.75;;;25.10;99.90;;;;;;5030179;28;20466;-74
2021/06/28 08:06:32;;;;;;;8.75;7.95;;;25.40;99.90;;;;;;5031783;28;20117;-75
2021/06/28 08:08:58;;;;;;;8.68;7.88;;;25.50;99.90;;;;;;5030793;28;20434;-74
2021/06/28 08:11:24;;;;;;;7.95;7.18;;;25.50;99.90;;;;;;5030307;28;20111;-74
2021/06/28 08:13:52;;;;;;;8.23;7.40;;;25.60;99.90;;;;;;5031451;28;20037;-74
2021/06/28 08:16:19;;;;;;;8.10;7.40;;;25.70;99.90;;;;;;5030458;28;20033;-74
2021/06/28 08:18:47;;;;;;;8.43;7.75;;;25.80;99.90;;;;;;5034222;28;20033;-74
2021/06/28 08:21:14;;;;;;;8.50;6.90;;;25.60;99.90;;;;;;5050286;28;20087;-74
2021/06/28 08:23:39;;;;;;;7.55;6.95;;;25.90;99.90;;;;;;5051358;28;20108;-74
2021/06/28 08:26:06;;;;;;;7.10;6.50;;;25.60;99.90;;;;;;5051313;28;20548;-74
2021/06/28 08:28:32;;;;;;;7.18;6.57;;;25.50;99.90;;;;;;5050147;28;20467;-74
2021/06/28 08:30:58;;;;;;;8.73;6.85;;;25.70;99.90;;;;;;5050145;28;20048;-74
2021/06/28 08:33:23;;;;;;;7.53;6.88;;;25.90;99.90;;;;;;5051392;28;20032;-74
2021/06/28 08:35:49;;;;;;;6.85;6.25;;;26.10;99.90;;;;;;5051338;28;20031;-74
2021/06/28 08:38:15;;;;;;;6.97;6.38;;;26.30;99.90;;;;;;5051430;28;20021;-74
2021/06/28 08:40:41;;;;;;;6.85;6.18;;;26.00;99.90;;;;;;5051105;28;20025;-74
2021/06/28 08:43:07;;;;;;;6.82;6.15;;;26.10;99.90;;;;;;5050034;28;20028;-74
2021/06/28 08:45:39;;;;;;;6.78;6.15;;;26.30;99.90;;;;;;5041336;28;20036;-75
2021/06/28 08:48:06;;;;;;;7.03;5.80;;;26.50;99.90;;;;;;5031058;28;20125;-74
2021/06/28 08:50:33;;;;;;;6.43;5.82;;;26.30;99.90;;;;;;5029725;28;20021;-74
2021/06/28 08:52:59;;;;;;;6.18;5.60;;;26.10;99.90;;;;;;5035662;28;20025;-74
2021/06/28 08:55:25;;;;;;;5.72;5.32;;;26.20;99.90;;;;;;5033659;28;20029;-74
2021/06/28 08:57:51;;;;;;;6.70;6.10;;;26.50;99.90;;;;;;5034911;28;20029;-74
2021/06/28 09:00:17;;;;;;;6.57;5.47;;;26.50;99.90;;;;;;5045682;28;20063;-74
2021/06/28 09:02:55;;;;;;;6.05;5.45;;;26.50;99.90;;;;;;5037216;28;20033;-74
2021/06/28 09:05:21;;;;;;;6.53;5.80;;;26.80;99.90;;;;;;5045942;28;20036;-75
2021/06/28 09:07:47;;;;;;;6.25;5.70;;;26.50;99.90;;;;;;5041279;28;20039;-74
2021/06/28 09:10:39;;;;;;;6.07;5.57;;;26.70;99.90;;;;;;5040778;28;20021;-74
2021/06/28 09:13:05;;;;;;;6.18;5.68;;;26.80;99.90;;;;;;5035000;28;20021;-74
2021/06/28 09:15:34;;;;;;;7.07;6.15;;;26.40;99.90;;;;;;5048075;28;20112;-74
2021/06/28 09:18:18;;;;;;;6.28;5.68;;;26.50;99.90;;;;;;5044686;28;20087;-74
2021/06/28 09:20:43;;;;;;;6.25;5.70;;;26.50;99.90;;;;;;5041222;28;20056;-74
2021/06/28 09:23:17;;;;;;;6.38;5.82;;;26.50;99.90;;;;;;5054718;28;20059;-73
2021/06/28 09:25:43;;;;;;;6.35;5.63;;;26.50;99.90;;;;;;5041161;28;20025;-74
2021/06/28 09:28:08;;;;;;;8.02;6.22;;;26.50;99.90;;;;;;5040098;28;20035;-74
2021/06/28 09:30:44;;;;;;;6.18;5.55;;;26.60;99.90;;;;;;5046546;28;20044;-74
2021/06/28 09:33:09;;;;;;;6.07;5.57;;;26.90;99.90;;;;;;5048043;28;20017;-74
2021/06/28 09:35:40;;;;;;;7.00;6.40;;;27.10;99.90;;;;;;5034428;28;20037;-74
2021/06/28 09:38:08;;;;;;;6.10;5.60;;;27.50;99.90;;;;;;5047654;28;20025;-74
2021/06/28 09:40:37;;;;;;;6.32;5.80;;;27.60;99.90;;;;;;5054244;28;20043;-74
2021/06/28 09:43:25;;;;;;;6.20;5.70;;;27.50;99.90;;;;;;5039188;28;20064;-74
2021/06/28 09:45:55;;;;;;;6.40;5.90;;;27.80;99.90;;;;;;5046654;28;20021;-76
2021/06/28 09:48:31;;;;;;;6.70;6.10;;;27.50;99.90;;;;;;5040685;28;20024;-75
2021/06/28 09:51:27;;;;;;;6.45;5.85;;;27.20;99.90;;;;;;5040565;28;20379;-74
2021/06/28 09:54:07;;;;;;;6.28;5.78;;;27.20;99.90;;;;;;5033310;28;20087;-75
2021/06/28 09:56:41;;;;;;;5.53;5.13;;;27.40;99.90;;;;;;5041324;28;20056;-75
2021/06/28 09:59:26;;;;;;;6.00;5.50;;;27.80;99.90;;;;;;5040374;28;20026;-74
2021/06/28 10:02:14;;;;;;;6.38;5.60;;;28.10;99.90;;;;;;5042667;28;20100;-74
2021/06/28 10:04:53;;;;;;;5.78;5.20;;;28.30;99.90;;;;;;5037513;28;20391;-75
2021/06/28 10:07:39;;;;;;;6.38;5.88;;;28.30;99.90;;;;;;5040273;28;20041;-74
2021/06/28 10:10:10;;;;;;;6.15;5.55;;;28.50;99.90;;;;;;5041799;28;20376;-75
2021/06/28 10:12:38;;;;;;;6.30;5.80;;;28.20;99.90;;;;;;5046910;28;20472;-74
2021/06/28 10:15:06;;;;;;;6.00;5.50;;;28.40;99.90;;;;;;5046523;28;20116;-74
2021/06/28 10:17:32;;;;;;;5.68;5.10;;;28.50;99.90;;;;;;5038773;28;20048;-74
2021/06/28 10:19:58;;;;;;;5.97;5.47;;;28.80;99.90;;;;;;5040139;28;20467;-74
2021/06/28 10:22:25;;;;;;;5.53;5.00;;;28.90;99.90;;;;;;5040126;28;20029;-74
2021/06/28 10:24:50;;;;;;;6.13;5.32;;;28.90;99.90;;;;;;5040191;28;20084;-75
2021/06/28 10:27:16;;;;;;;6.85;5.43;;;28.60;99.90;;;;;;5045517;28;20113;-75
2021/06/28 10:29:43;;;;;;;5.75;5.25;;;28.50;99.90;;;;;;5046432;28;20110;-74
2021/06/28 10:32:11;;;;;;;5.03;4.63;;;28.80;99.90;;;;;;5039897;28;20036;-75
2021/06/28 10:34:40;;;;;;;5.10;4.47;;;28.90;99.90;;;;;;5039789;28;20029;-74
2021/06/28 10:37:33;;;;;;;4.93;4.53;;;29.20;99.90;;;;;;5040332;28;20028;-75
2021/06/28 10:40:03;;;;;;;5.00;4.60;;;29.40;99.90;;;;;;5038197;28;20119;-74
2021/06/28 10:42:34;;;;;;;5.30;4.80;;;29.30;99.90;;;;;;5041839;28;20431;-75
2021/06/28 10:45:00;;;;;;;4.97;4.43;;;29.60;99.90;;;;;;5051639;28;20032;-75
2021/06/28 10:47:28;;;;;;;4.65;4.30;;;29.80;99.90;;;;;;5039390;28;20037;-74
2021/06/28 10:49:54;;;;;;;5.55;5.05;;;30.00;99.90;;;;;;5045132;28;20033;-74
2021/06/28 10:52:38;;;;;;;5.50;5.00;;;29.60;99.90;;;;;;5043916;28;20025;-74
2021/06/28 10:55:21;;;;;;;5.40;5.00;;;29.60;99.90;;;;;;5040884;28;20025;-74
2021/06/28 10:57:55;;;;;;;5.63;5.10;;;29.60;99.90;;;;;;5039322;28;20449;-74
2021/06/28 11:00:53;;;;;;;6.50;5.55;;;29.70;99.90;;;;;;5041451;28;20031;-74
2021/06/28 11:03:30;;;;;;;5.72;5.22;;;29.90;99.90;;;;;;5031567;28;20033;-74
2021/06/28 11:06:17;;;;;;;5.65;5.15;;;29.70;99.90;;;;;;5036680;28;20045;-74
2021/06/28 11:08:57;;;;;;;6.35;5.50;;;29.60;99.90;;;;;;5039246;28;20033;-74
2021/06/28 11:11:45;;;;;;;5.60;5.13;;;29.90;99.90;;;;;;5042462;28;20032;-75
2021/06/28 11:14:30;;;;;;;5.70;5.07;;;30.10;99.90;;;;;;5045554;28;20388;-74
2021/06/28 11:17:09;;;;;;;5.55;5.05;;;30.20;99.90;;;;;;5045950;28;20021;-74
2021/06/28 11:19:58;;;;;;;5.93;5.43;;;30.10;99.90;;;;;;5041835;28;20473;-74
2021/06/28 11:22:27;;;;;;;5.50;5.10;;;30.50;99.90;;;;;;5039178;28;20108;-75
2021/06/28 11:25:19;;;;;;;5.53;5.13;;;30.30;99.90;;;;;;5051054;28;20025;-74
2021/06/28 11:28:07;;;;;;;5.97;5.30;;;30.60;99.90;;;;;;5032975;28;20037;-75
2021/06/28 11:30:37;;;;;;;5.75;5.18;;;30.70;99.90;;;;;;5038609;28;20051;-74
2021/06/28 11:33:09;;;;;;;5.93;4.90;;;30.80;99.90;;;;;;5038937;28;20020;-74
2021/06/28 11:35:50;;;;;;;5.20;4.80;;;30.80;99.90;;;;;;5043129;28;20064;-75
2021/06/28 11:38:24;;;;;;;5.10;4.70;;;30.30;99.90;;;;;;5045857;28;20022;-75
2021/06/28 11:40:57;;;;;;;5.15;4.75;;;30.10;99.90;;;;;;5042456;28;20025;-75
2021/06/28 11:43:34;;;;;;;5.57;5.07;;;30.30;99.90;;;;;;5034136;28;20025;-74
2021/06/28 11:46:00;;;;;;;5.93;5.40;;;30.80;99.90;;;;;;5045659;28;20028;-74
2021/06/28 11:48:41;;;;;;;6.03;5.53;;;30.70;99.90;;;;;;5039108;28;20029;-74
2021/06/28 11:51:19;;;;;;;5.78;5.28;;;31.00;99.90;;;;;;5038565;28;20030;-75
2021/06/28 11:53:54;;;;;;;5.88;5.13;;;31.20;99.90;;;;;;5050669;28;20391;-74
2021/06/28 11:56:24;;;;;;;;;;;31.10;99.90;;;;;;5038925;28;20435;-74
2021/06/28 11:59:04;;;;;;;5.95;5.45;;;30.40;99.90;;;;;;5039773;28;19912;-75
2021/06/28 12:01:33;;;;;;;5.70;5.18;;;30.00;99.90;;;;;;5038885;28;20021;-74
2021/06/28 12:04:01;;;;;;;5.65;5.15;;;30.40;99.90;;;;;;5038480;28;20031;-74
2021/06/28 12:06:29;;;;;;;5.78;5.38;;;30.70;99.90;;;;;;5043717;28;20025;-75
2021/06/28 12:09:07;;;;;;;5.38;4.88;;;31.20;99.90;;;;;;5045465;28;20025;-74
2021/06/28 12:11:34;;;;;;;5.40;4.90;;;31.40;99.90;;;;;;5040423;28;20068;-75
2021/06/28 12:13:59;;;;;;;4.85;4.45;;;30.40;99.90;;;;;;5038246;28;20036;-74
2021/06/28 12:16:27;;;;;;;5.28;4.88;;;30.20;99.90;;;;;;5041975;28;20033;-74
2021/06/28 12:19:08;;;;;;;5.88;5.38;;;30.40;99.90;;;;;;5048204;28;20017;-75
2021/06/28 12:21:37;;;;;;;5.50;5.00;;;30.70;99.90;;;;;;5038120;28;20079;-74
2021/06/28 12:24:09;;;;;;;6.25;5.65;;;30.80;99.90;;;;;;5044043;28;20108;-75
2021/06/28 12:26:36;;;;;;;5.70;5.20;;;31.50;99.90;;;;;;5034803;28;20108;-74
2021/06/28 12:29:24;;;;;;;5.53;5.13;;;31.80;99.90;;;;;;5042158;28;20044;-75
2021/06/28 12:31:50;;;;;;;5.07;4.68;;;31.80;99.90;;;;;;5055696;28;20017;-74
2021/06/28 12:34:18;;;;;;;5.78;5.32;;;32.30;99.90;;;;;;5046052;28;20160;-75
2021/06/28 12:36:50;;;;;;;5.65;5.18;;;31.80;99.90;;;;;;5048892;28;20036;-75
2021/06/28 12:39:24;;;;;;;5.35;4.90;;;31.80;99.90;;;;;;5046236;28;20510;-75
2021/06/28 12:41:50;;;;;;;5.65;5.15;;;32.30;99.90;;;;;;5040921;28;20123;-75
2021/06/28 12:44:15;;;;;;;5.80;5.40;;;32.40;99.90;;;;;;5054069;28;20120;-75
2021/06/28 12:46:43;;;;;;;6.20;5.40;;;31.80;99.90;;;;;;5041936;28;20080;-75